createdAt,value
2022-08-20T00:01:17.764Z,95798.66
2022-08-20T00:03:50.244Z,95811.09
2022-08-20T00:06:24.578Z,95806.88
2022-08-20T00:08:53.117Z,95810.41
2022-08-20T00:11:25.165Z,95815.09
2022-08-20T00:13:57.454Z,95818.88
2022-08-20T00:16:27.810Z,95823.97
2022-08-20T00:18:55.486Z,95824.19
2022-08-20T00:21:25.541Z,95823.31
2022-08-20T00:23:55.522Z,95821.75
2022-08-20T00:26:25.718Z,95819.28
2022-08-20T00:28:53.646Z,95828.38
2022-08-20T00:31:24.530Z,95826.97
2022-08-20T00:33:53.411Z,95817.84
2022-08-20T00:36:22.812Z,95815.63
2022-08-20T00:39:02.002Z,95825.19
2022-08-20T00:41:30.961Z,95823.63
2022-08-20T00:44:09.980Z,95827.09
2022-08-20T00:46:39.119Z,95823.19
2022-08-20T00:49:08.940Z,95823.19
2022-08-20T00:51:40.875Z,95825.28
2022-08-20T00:54:18.736Z,95832.97
2022-08-20T00:56:50.867Z,95831.06
2022-08-20T00:59:22.412Z,95827.19
2022-08-20T01:01:56.227Z,95821.63
2022-08-20T01:04:26.157Z,95829.09
2022-08-20T01:06:54.664Z,95819.16
2022-08-20T01:09:49.628Z,95823.31
2022-08-20T01:12:13.604Z,95825.41
2022-08-20T01:14:45.868Z,95824.75
2022-08-20T01:17:17.785Z,95820.97
2022-08-20T01:19:52.526Z,95827.72
2022-08-20T01:22:44.239Z,95827.72
2022-08-20T01:25:19.673Z,95816.81
2022-08-20T01:27:55.585Z,95825.28
2022-08-20T01:30:25.974Z,95828.59
2022-08-20T01:32:53.722Z,95834.25
2022-08-20T01:35:23.617Z,95829.72
2022-08-20T01:37:51.250Z,95810.66
2022-08-20T01:40:32.371Z,95827.69
2022-08-20T01:43:01.418Z,95817.63
2022-08-20T01:45:30.895Z,95834.47
2022-08-20T01:47:58.948Z,95834.94
2022-08-20T01:50:29.725Z,95831.47
2022-08-20T01:53:04.211Z,95827.78
2022-08-20T01:55:32.718Z,95840.00
2022-08-20T01:58:02.581Z,95836.75
2022-08-20T02:00:30.531Z,95842.09
2022-08-20T02:02:58.278Z,95838.78
2022-08-20T02:05:30.331Z,95844.13
2022-08-20T02:07:58.784Z,95838.34
2022-08-20T02:10:26.592Z,95835.81
2022-08-20T02:12:54.523Z,95845.75
2022-08-20T02:15:34.583Z,95850.00
2022-08-20T02:18:08.073Z,95845.19
2022-08-20T02:20:36.814Z,95850.00
2022-08-20T02:23:05.610Z,95852.91
2022-08-20T02:25:36.728Z,95843.69
2022-08-20T02:28:09.147Z,95847.91
2022-08-20T02:30:42.175Z,95852.97
2022-08-20T02:33:13.293Z,95840.97
2022-08-20T02:35:43.417Z,95854.66
2022-08-20T02:38:11.690Z,95855.31
2022-08-20T02:40:40.825Z,95844.66
2022-08-20T02:43:08.482Z,95837.88
2022-08-20T02:45:43.426Z,95842.50
2022-08-20T02:48:21.216Z,95857.72
2022-08-20T02:50:51.962Z,95854.88
2022-08-20T02:53:19.763Z,95849.78
2022-08-20T02:55:47.857Z,95859.16
2022-08-20T02:58:15.886Z,95862.28
2022-08-20T03:00:44.561Z,95857.59
2022-08-20T03:03:15.239Z,95859.16
2022-08-20T03:05:44.573Z,95860.72
2022-08-20T03:08:14.313Z,95846.91
2022-08-20T03:10:43.476Z,95859.88
2022-08-20T03:13:12.634Z,95844.47
2022-08-20T03:15:42.749Z,95858.97
2022-08-20T03:18:11.112Z,95864.63
2022-08-20T03:20:40.460Z,95856.31
2022-08-20T03:23:08.523Z,95863.41
2022-08-20T03:25:36.970Z,95852.25
2022-08-20T03:28:05.288Z,95859.66
2022-08-20T03:30:32.977Z,95865.47
2022-08-20T03:33:01.227Z,95870.16
2022-08-20T03:35:31.257Z,95865.13
2022-08-20T03:38:02.978Z,95872.81
2022-08-20T03:40:33.388Z,95874.06
2022-08-20T03:43:01.340Z,95872.03
2022-08-20T03:45:29.834Z,95877.38
2022-08-20T03:47:58.411Z,95876.25
2022-08-20T03:50:29.558Z,95874.47
2022-08-20T03:52:58.085Z,95881.50
2022-08-20T03:55:30.075Z,95885.13
2022-08-20T03:58:01.094Z,95882.91
2022-08-20T04:00:30.797Z,95883.13
2022-08-20T04:02:58.447Z,95896.63
2022-08-20T04:05:28.437Z,95886.09
2022-08-20T04:08:00.099Z,95890.63
2022-08-20T04:10:32.978Z,95889.88
2022-08-20T04:13:01.605Z,95883.34
2022-08-20T04:15:29.543Z,95890.91
2022-08-20T04:17:59.249Z,95895.97
2022-08-20T04:20:27.932Z,95899.13
2022-08-20T04:22:58.540Z,95897.16
2022-08-20T04:25:28.435Z,95901.38
2022-08-20T04:27:59.142Z,95907.38
2022-08-20T04:30:27.988Z,95909.13
2022-08-20T04:32:56.411Z,95913.81
2022-08-20T04:35:25.351Z,95917.78
2022-08-20T04:37:59.368Z,95913.06
2022-08-20T04:40:45.131Z,95906.63
2022-08-20T04:43:14.259Z,95917.13
2022-08-20T04:45:42.134Z,95919.00
2022-08-20T04:48:14.719Z,95916.66
2022-08-20T04:50:45.067Z,95914.47
2022-08-20T04:53:16.299Z,95914.47
2022-08-20T04:55:45.993Z,95903.00
2022-08-20T04:58:18.113Z,95908.59
2022-08-20T05:00:48.344Z,95913.66
2022-08-20T05:03:16.533Z,95916.31
2022-08-20T05:05:46.198Z,95920.09
2022-08-20T05:08:20.192Z,95922.31
2022-08-20T05:10:48.315Z,95916.38
2022-08-20T05:13:17.450Z,95919.97
2022-08-20T05:15:45.614Z,95926.22
2022-08-20T05:18:13.674Z,95929.81
2022-08-20T05:20:42.802Z,95930.78
2022-08-20T05:23:12.592Z,95938.00
2022-08-20T05:25:41.884Z,95942.81
2022-08-20T05:28:12.458Z,95946.13
2022-08-20T05:30:44.572Z,95946.91
2022-08-20T05:33:19.721Z,95949.13
2022-08-20T05:35:49.308Z,95950.47
2022-08-20T05:38:19.096Z,95951.13
2022-08-20T05:40:47.796Z,95947.66
2022-08-20T05:43:16.021Z,95950.94
2022-08-20T05:45:46.918Z,95951.44
2022-08-20T05:48:16.917Z,95950.44
2022-08-20T05:50:46.771Z,95956.09
2022-08-20T05:53:14.428Z,95958.44
2022-08-20T05:55:42.927Z,95955.75
2022-08-20T05:58:18.543Z,95962.34
2022-08-20T06:00:48.391Z,95968.00
2022-08-20T06:03:33.973Z,95963.59
2022-08-20T06:06:02.078Z,95960.00
2022-08-20T06:08:29.842Z,95952.78
2022-08-20T06:10:57.709Z,95962.34
2022-08-20T06:13:26.229Z,95962.34
2022-08-20T06:15:55.586Z,95962.47
2022-08-20T06:18:23.465Z,95968.28
2022-08-20T06:20:55.987Z,95973.16
2022-08-20T06:23:25.275Z,95971.38
2022-08-20T06:25:53.292Z,95972.34
2022-08-20T06:28:20.981Z,95977.31
2022-08-20T06:30:48.707Z,95980.56
2022-08-20T06:33:17.710Z,95973.53
2022-08-20T06:35:45.436Z,95980.44
2022-08-20T06:38:14.709Z,95977.31
2022-08-20T06:40:42.498Z,95978.34
2022-08-20T06:43:10.357Z,95964.44
2022-08-20T06:45:38.894Z,95982.28
2022-08-20T06:48:08.840Z,95983.63
2022-08-20T06:50:47.079Z,95980.84
2022-08-20T06:53:18.374Z,95991.00
2022-08-20T06:55:49.551Z,95996.34
2022-08-20T06:58:35.761Z,95989.44
2022-08-20T07:01:05.598Z,95991.53
2022-08-20T07:03:38.069Z,95992.13
2022-08-20T07:06:08.426Z,96004.97
2022-08-20T07:08:36.808Z,96001.03
2022-08-20T07:11:04.570Z,96007.03
2022-08-20T07:13:32.240Z,96002.31
2022-08-20T07:15:59.961Z,96006.28
2022-08-20T07:18:27.907Z,96005.84
2022-08-20T07:20:57.765Z,96004.06
2022-08-20T07:23:27.972Z,96003.16
2022-08-20T07:25:56.314Z,96003.56
2022-08-20T07:28:26.077Z,96004.81
2022-08-20T07:31:13.765Z,96009.47
2022-08-20T07:33:44.856Z,96004.94
2022-08-20T07:36:14.018Z,96010.53
2022-08-20T07:38:45.796Z,96018.22
2022-08-20T07:41:14.924Z,96015.03
2022-08-20T07:43:45.494Z,96016.81
2022-08-20T07:46:14.948Z,96017.78
2022-08-20T07:48:46.239Z,96016.72
2022-08-20T07:51:17.776Z,96022.75
2022-08-20T07:53:48.317Z,96032.41
2022-08-20T07:56:19.218Z,96025.34
2022-08-20T07:58:50.116Z,96023.13
2022-08-20T08:01:20.005Z,96030.06
2022-08-20T08:03:50.449Z,96032.06
2022-08-20T08:06:29.027Z,96027.94
2022-08-20T08:09:06.143Z,96025.19
2022-08-20T08:11:37.860Z,96031.63
2022-08-20T08:14:08.118Z,96024.38
2022-08-20T08:16:37.346Z,96027.19
2022-08-20T08:19:09.794Z,96033.19
2022-08-20T08:21:37.453Z,96033.63
2022-08-20T08:24:06.909Z,96035.97
2022-08-20T08:26:34.562Z,96036.50
2022-08-20T08:29:02.489Z,96031.63
2022-08-20T08:31:30.437Z,96019.56
2022-08-20T08:33:58.532Z,96043.66
2022-08-20T08:36:27.324Z,96046.09
2022-08-20T08:38:55.859Z,96041.91
2022-08-20T08:41:31.861Z,96054.94
2022-08-20T08:44:06.008Z,96055.69
2022-08-20T08:46:40.251Z,96055.59
2022-08-20T08:49:11.046Z,96055.84
2022-08-20T08:51:42.944Z,96058.84
2022-08-20T08:54:15.826Z,96061.19
2022-08-20T08:56:49.845Z,96061.19
2022-08-20T08:59:20.431Z,96062.16
2022-08-20T09:01:54.581Z,96067.31
2022-08-20T09:04:29.108Z,96061.38
2022-08-20T09:06:57.411Z,96066.25
2022-08-20T09:09:28.743Z,96049.06
2022-08-20T09:12:04.788Z,96066.38
2022-08-20T09:14:32.640Z,96063.41
2022-08-20T09:17:00.430Z,96057.09
2022-08-20T09:19:28.109Z,96059.63
2022-08-20T09:21:56.011Z,96058.06
2022-08-20T09:24:23.676Z,96064.28
2022-08-20T09:26:51.368Z,96056.50
2022-08-20T09:29:20.509Z,96062.72
2022-08-20T09:31:48.837Z,96065.09
2022-08-20T09:34:16.510Z,96060.41
2022-08-20T09:36:44.171Z,96062.09
2022-08-20T09:39:12.536Z,96060.78
2022-08-20T09:41:40.278Z,96059.81
2022-08-20T09:44:08.162Z,96063.25
2022-08-20T09:46:37.515Z,96052.56
2022-08-20T09:49:05.216Z,96052.88
2022-08-20T09:51:34.865Z,96059.69
2022-08-20T09:54:06.577Z,96051.97
2022-08-20T09:56:35.741Z,96052.31
2022-08-20T09:59:05.987Z,96032.41
2022-08-20T10:01:35.159Z,96053.69
2022-08-20T10:04:04.955Z,96050.56
2022-08-20T10:06:37.573Z,96053.22
2022-08-20T10:09:15.916Z,96050.09
2022-08-20T10:11:48.531Z,96034.81
2022-08-20T10:14:16.318Z,96041.28
2022-08-20T10:16:44.080Z,96044.72
2022-08-20T10:19:13.196Z,96047.06
2022-08-20T10:21:41.002Z,96045.06
2022-08-20T10:24:08.832Z,96058.34
2022-08-20T10:26:38.674Z,96052.22
2022-08-20T10:29:06.321Z,96057.91
2022-08-20T10:31:34.037Z,96057.56
2022-08-20T10:34:01.873Z,96048.28
2022-08-20T10:36:30.966Z,96033.78
2022-08-20T10:38:58.826Z,96045.16
2022-08-20T10:41:28.280Z,96043.72
2022-08-20T10:43:55.955Z,96042.94
2022-08-20T10:46:23.660Z,96047.63
2022-08-20T10:48:51.395Z,96047.63
2022-08-20T10:51:19.094Z,96044.28
2022-08-20T10:53:48.695Z,96047.75
2022-08-20T10:56:16.415Z,96037.72
2022-08-20T11:01:51.257Z,95887.13
2022-08-20T11:04:20.801Z,95929.13
2022-08-20T11:06:49.233Z,95907.03
2022-08-20T11:09:23.402Z,95878.34
2022-08-20T11:11:51.652Z,95980.00
2022-08-20T11:14:20.242Z,95958.28
2022-08-20T11:16:49.201Z,95985.88
2022-08-20T11:19:23.005Z,95885.69
2022-08-20T11:21:52.562Z,95899.19
2022-08-20T11:24:25.831Z,95926.78
2022-08-20T11:26:54.785Z,95969.41
2022-08-20T11:29:24.943Z,95924.13
2022-08-20T11:31:53.601Z,95957.22
2022-08-20T11:34:22.784Z,95990.69
2022-08-20T11:36:53.551Z,95979.94
2022-08-20T11:39:26.893Z,95953.22
2022-08-20T11:41:55.971Z,95845.81
2022-08-20T11:44:23.996Z,95964.41
2022-08-20T11:46:51.892Z,95990.13
2022-08-20T11:49:19.956Z,95939.41
2022-08-20T11:51:49.461Z,95919.38
2022-08-20T11:54:18.602Z,95972.75
2022-08-20T11:56:49.550Z,95861.63
2022-08-20T11:59:18.335Z,96030.19
2022-08-20T12:01:46.510Z,95954.59
2022-08-20T12:04:33.633Z,96003.94
2022-08-20T12:07:09.583Z,95991.81
2022-08-20T12:09:37.503Z,96039.75
2022-08-20T12:12:27.876Z,95999.41
2022-08-20T12:14:56.660Z,95978.56
2022-08-20T12:17:26.742Z,95944.91
2022-08-20T12:19:57.065Z,96027.03
2022-08-20T12:22:25.759Z,96013.44
2022-08-20T12:24:53.895Z,96021.25
2022-08-20T12:27:24.154Z,96002.22
2022-08-20T12:29:56.092Z,95957.94
2022-08-20T12:32:26.175Z,95968.44
2022-08-20T12:34:54.599Z,96020.13
2022-08-20T12:37:28.306Z,95978.56
2022-08-20T12:39:59.148Z,95992.94
2022-08-20T12:42:29.229Z,95963.97
2022-08-20T12:45:07.544Z,96007.72
2022-08-20T12:47:37.950Z,96002.06
2022-08-20T12:50:08.938Z,96005.84
2022-08-20T12:52:37.396Z,95976.91
2022-08-20T12:55:06.894Z,95891.31
2022-08-20T12:57:37.256Z,95900.69
2022-08-20T13:00:09.456Z,96006.94
2022-08-20T13:02:38.684Z,96030.16
2022-08-20T13:05:07.929Z,96014.97
2022-08-20T13:07:36.887Z,95951.47
2022-08-20T13:10:06.611Z,95884.84
2022-08-20T13:12:34.639Z,95956.38
2022-08-20T13:15:02.582Z,95895.88
2022-08-20T13:17:38.605Z,95897.31
2022-08-20T13:20:10.801Z,95955.41
2022-08-20T13:22:38.584Z,95996.69
2022-08-20T13:25:07.608Z,95963.03
2022-08-20T13:27:38.271Z,95960.25
2022-08-20T13:30:08.291Z,95920.13
2022-08-20T13:32:37.350Z,95999.25
2022-08-20T13:35:06.039Z,95924.97
2022-08-20T13:37:34.015Z,95981.69
2022-08-20T13:40:02.064Z,95974.56
2022-08-20T13:42:29.913Z,95985.47
2022-08-20T13:44:57.736Z,95947.13
2022-08-20T13:47:32.516Z,95983.50
2022-08-20T13:50:21.577Z,95944.09
2022-08-20T13:52:49.656Z,95937.59
2022-08-20T13:55:41.467Z,95970.38
2022-08-20T13:58:09.261Z,95875.13
2022-08-20T14:00:37.518Z,95977.22
2022-08-20T14:03:07.297Z,95948.59
2022-08-20T14:05:37.932Z,95926.63
2022-08-20T14:08:08.447Z,95974.28
2022-08-20T14:10:36.451Z,95878.84
2022-08-20T14:13:05.720Z,95968.81
2022-08-20T14:15:33.853Z,95972.28
2022-08-20T14:18:01.634Z,95970.09
2022-08-20T14:20:32.539Z,95978.91
2022-08-20T14:23:02.791Z,95837.72
2022-08-20T14:25:38.243Z,95983.09
2022-08-20T14:28:14.613Z,95985.66
2022-08-20T14:30:48.679Z,95993.50
2022-08-20T14:33:21.415Z,95941.00
2022-08-20T14:35:56.353Z,95896.47
2022-08-20T14:38:55.162Z,95987.47
2022-08-20T14:41:22.852Z,95991.25
2022-08-20T14:43:55.984Z,95952.13
2022-08-20T14:46:23.725Z,95981.78
2022-08-20T14:48:53.335Z,95959.69
2022-08-20T14:51:21.451Z,96000.19
2022-08-20T14:53:50.645Z,95900.44
2022-08-20T14:56:21.936Z,95962.75
2022-08-20T14:58:50.690Z,96026.97
2022-08-20T15:01:18.447Z,95925.75
2022-08-20T15:03:46.205Z,95944.84
2022-08-20T15:06:21.745Z,96067.53
2022-08-20T15:08:50.066Z,96049.28
2022-08-20T15:11:19.677Z,95939.56
2022-08-20T15:13:48.790Z,96002.22
2022-08-20T15:16:16.536Z,96056.16
2022-08-20T15:18:44.224Z,95990.63
2022-08-20T15:21:12.557Z,96076.44
2022-08-20T15:23:40.344Z,95954.88
2022-08-20T15:26:08.152Z,95955.03
2022-08-20T15:28:35.870Z,95931.75
2022-08-20T15:31:10.035Z,96053.91
2022-08-20T15:33:37.963Z,96059.88
2022-08-20T15:36:08.551Z,95974.75
2022-08-20T15:38:36.594Z,95970.38
2022-08-20T15:41:07.678Z,96034.06
2022-08-20T15:43:37.665Z,95961.34
2022-08-20T15:46:07.653Z,96077.59
2022-08-20T15:48:37.654Z,96048.44
2022-08-20T15:51:24.217Z,96066.28
2022-08-20T15:53:58.456Z,96054.50
2022-08-20T15:56:41.311Z,96031.41
2022-08-20T15:59:21.816Z,96027.78
2022-08-20T16:02:00.304Z,96033.88
2022-08-20T16:05:19.941Z,96055.97
2022-08-20T16:08:00.963Z,96012.91
2022-08-20T16:10:35.218Z,96058.28
2022-08-20T16:13:10.731Z,95992.09
2022-08-20T16:15:49.467Z,96059.84
2022-08-20T16:18:23.478Z,95970.03
2022-08-20T16:21:14.514Z,95976.03
2022-08-20T16:23:44.629Z,96060.03
2022-08-20T16:26:29.246Z,96053.78
2022-08-20T16:29:04.663Z,96030.59
2022-08-20T16:31:45.426Z,96038.75
2022-08-20T16:34:33.729Z,95961.81
2022-08-20T16:37:10.146Z,95970.09
2022-08-20T16:39:48.430Z,95957.72
2022-08-20T16:42:21.699Z,96039.53
2022-08-20T16:44:51.785Z,96035.78
2022-08-20T16:47:22.405Z,96071.91
2022-08-20T16:49:58.572Z,96047.34
2022-08-20T16:52:26.605Z,96066.28
2022-08-20T16:54:54.374Z,95928.81
2022-08-20T16:57:22.247Z,96014.50
2022-08-20T17:00:09.324Z,96053.03
2022-08-20T17:02:49.277Z,96079.94
2022-08-20T17:05:19.670Z,96077.75
2022-08-20T17:07:51.534Z,96080.41
2022-08-20T17:10:24.015Z,96038.63
2022-08-20T17:12:59.450Z,96074.31
2022-08-20T17:15:31.592Z,95959.03
2022-08-20T17:18:17.449Z,96094.06
2022-08-20T17:20:46.720Z,96073.72
2022-08-20T17:23:18.384Z,96089.03
2022-08-20T17:25:57.533Z,96079.50
2022-08-20T17:28:25.301Z,96074.63
2022-08-20T17:30:53.484Z,96087.47
2022-08-20T17:33:27.823Z,95954.50
2022-08-20T17:36:00.344Z,95946.84
2022-08-20T17:38:34.714Z,96008.13
2022-08-20T17:41:04.854Z,96082.94
2022-08-20T17:43:34.543Z,96000.63
2022-08-20T17:46:16.313Z,96032.84
2022-08-20T17:48:47.122Z,96041.13
2022-08-20T17:51:19.190Z,96092.00
2022-08-20T17:53:51.799Z,96085.91
2022-08-20T17:56:28.459Z,96003.75
2022-08-20T17:59:11.059Z,96078.41
2022-08-20T18:01:38.993Z,96093.06
2022-08-20T18:04:06.883Z,96071.34
2022-08-20T18:06:44.737Z,96005.13
2022-08-20T18:09:16.932Z,95991.91
2022-08-20T18:11:49.369Z,96091.78
2022-08-20T18:14:40.714Z,96089.22
2022-08-20T18:17:25.213Z,96092.84
2022-08-20T18:20:23.448Z,96094.44
2022-08-20T18:22:57.903Z,96089.47
2022-08-20T18:25:33.275Z,95998.69
2022-08-20T18:28:08.052Z,96096.63
2022-08-20T18:30:36.243Z,96097.28
2022-08-20T18:33:07.557Z,96022.03
2022-08-20T18:35:38.585Z,96088.22
2022-08-20T18:38:31.379Z,96086.34
2022-08-20T18:41:11.253Z,96077.41
2022-08-20T18:43:39.969Z,96096.78
2022-08-20T18:46:21.352Z,96027.63
2022-08-20T18:48:55.850Z,96092.56
2022-08-20T18:51:30.463Z,96071.47
2022-08-20T18:53:59.690Z,96005.59
2022-08-20T18:56:37.244Z,96106.53
2022-08-20T18:59:10.109Z,96112.19
2022-08-20T19:01:39.484Z,96113.75
2022-08-20T19:04:19.070Z,96111.72
2022-08-20T19:06:52.455Z,96102.06
2022-08-20T19:09:39.435Z,96024.25
2022-08-20T19:12:21.966Z,96121.13
2022-08-20T19:14:59.347Z,96101.13
2022-08-20T19:17:47.845Z,96118.22
2022-08-20T19:20:20.289Z,96119.91
2022-08-20T19:22:50.010Z,96120.69
2022-08-20T19:25:28.837Z,96119.47
2022-08-20T19:27:59.517Z,96119.91
2022-08-20T19:30:37.517Z,96123.34
2022-08-20T19:33:05.872Z,96106.47
2022-08-20T19:35:34.004Z,96117.09
2022-08-20T19:38:02.545Z,96111.31
2022-08-20T19:40:35.156Z,96049.00
2022-08-20T19:43:13.143Z,96112.72
2022-08-20T19:45:45.070Z,96047.75
2022-08-20T19:48:31.945Z,96110.06
2022-08-20T19:51:09.794Z,96109.75
2022-08-20T19:53:44.479Z,96049.47
2022-08-20T19:56:17.742Z,96097.22
2022-08-20T19:58:46.682Z,96088.75
2022-08-20T20:01:18.333Z,96102.72
2022-08-20T20:03:56.574Z,96072.47
2022-08-20T20:06:26.814Z,96020.34
2022-08-20T20:09:00.858Z,96094.50
2022-08-20T20:11:34.491Z,96094.19
2022-08-20T20:14:05.417Z,96064.16
2022-08-20T20:16:33.984Z,96049.13
2022-08-20T20:19:24.858Z,96079.19
2022-08-20T20:21:52.194Z,96088.25
2022-08-20T20:24:25.701Z,96007.31
2022-08-20T20:26:54.846Z,96081.63
2022-08-20T20:29:26.983Z,96090.13
2022-08-20T20:31:59.843Z,96087.91
2022-08-20T20:34:30.155Z,96036.09
2022-08-20T20:37:04.636Z,96059.47
2022-08-20T20:39:35.136Z,96089.97
2022-08-20T20:42:07.011Z,96033.00
2022-08-20T20:44:37.750Z,96091.84
2022-08-20T20:47:09.447Z,96088.53
2022-08-20T20:49:50.163Z,96090.44
2022-08-20T20:52:28.444Z,96015.47
2022-08-20T20:55:10.646Z,96074.16
2022-08-20T20:57:40.427Z,95946.47
2022-08-20T21:00:12.639Z,96078.06
2022-08-20T21:02:40.566Z,96066.63
2022-08-20T21:05:09.433Z,95985.63
2022-08-20T21:07:50.670Z,96077.59
2022-08-20T21:10:20.996Z,96069.03
2022-08-20T21:12:52.993Z,96012.63
2022-08-20T21:15:22.555Z,96052.09
2022-08-20T21:17:56.562Z,95987.31
2022-08-20T21:20:24.262Z,96066.34
2022-08-20T21:22:52.065Z,96056.94
2022-08-20T21:25:20.379Z,96089.38
2022-08-20T21:27:52.698Z,96069.03
2022-08-20T21:30:22.357Z,96078.09
2022-08-20T21:32:50.761Z,96066.34
2022-08-20T21:35:18.952Z,96072.47
2022-08-20T21:37:46.734Z,96089.25
2022-08-20T21:40:15.198Z,96071.53
2022-08-20T21:42:46.284Z,96071.84
2022-08-20T21:45:19.544Z,96083.13
2022-08-20T21:47:48.860Z,96034.16
2022-08-20T21:50:18.872Z,96084.41
2022-08-20T21:52:55.498Z,96072.97
2022-08-20T21:55:29.294Z,96070.63
2022-08-20T21:57:58.552Z,96079.19
2022-08-20T22:00:48.222Z,96087.06
2022-08-20T22:03:20.038Z,96089.75
2022-08-20T22:05:48.210Z,96010.84
2022-08-20T22:08:16.007Z,96084.41
2022-08-20T22:10:44.077Z,96086.44
2022-08-20T22:13:11.971Z,96083.47
2022-08-20T22:15:40.492Z,96076.53
2022-08-20T22:18:10.202Z,96065.28
2022-08-20T22:20:38.033Z,96075.16
2022-08-20T22:23:07.294Z,96050.75
2022-08-20T22:25:35.402Z,96080.31
2022-08-20T22:28:03.170Z,96004.88
2022-08-20T22:30:31.361Z,96000.34
2022-08-20T22:33:03.892Z,96076.72
2022-08-20T22:35:33.778Z,96051.06
2022-08-20T22:38:01.756Z,96036.00
2022-08-20T22:40:29.723Z,96058.56
2022-08-20T22:42:57.547Z,96004.09
2022-08-20T22:45:25.474Z,96030.22
2022-08-20T22:47:53.164Z,96076.53
2022-08-20T22:50:22.284Z,96065.78
2022-08-20T22:52:51.997Z,96074.06
2022-08-20T22:55:20.532Z,96050.25
2022-08-20T22:57:48.609Z,96065.91
2022-08-20T23:00:18.356Z,96033.97
2022-08-20T23:02:51.386Z,95976.72
2022-08-20T23:05:22.133Z,96053.22
2022-08-20T23:07:54.144Z,96070.28
2022-08-20T23:10:22.366Z,96070.94
2022-08-20T23:12:50.067Z,96080.19
2022-08-20T23:15:17.856Z,96038.22
2022-08-20T23:17:45.771Z,96037.94
2022-08-20T23:20:16.892Z,96066.84
2022-08-20T23:22:44.981Z,96013.94
2022-08-20T23:25:14.888Z,96065.44
2022-08-20T23:27:45.690Z,96052.00
2022-08-20T23:30:14.724Z,96055.28
2022-08-20T23:32:42.871Z,96054.97
2022-08-20T23:35:11.111Z,96002.44
2022-08-20T23:37:41.918Z,96008.31
2022-08-20T23:40:11.050Z,96028.38
2022-08-20T23:42:40.178Z,96049.19
2022-08-20T23:45:09.738Z,96046.84
2022-08-20T23:47:37.943Z,96048.59
2022-08-20T23:50:08.319Z,96047.63
2022-08-20T23:52:36.066Z,96042.78
2022-08-20T23:55:04.664Z,96042.31
2022-08-20T23:57:32.529Z,96034.50
